sensor_id;sensor_type;location;lat;lon;timestamp;P1;durP1;ratioP1;P2;durP2;ratioP2
79143;SDS011;68551;47.484;19.092;2023-04-06T00:00:37;6.65;;;4.78;;
79143;SDS011;68551;47.484;19.092;2023-04-06T00:03:40;6.40;;;4.60;;
79143;SDS011;68551;47.484;19.092;2023-04-06T00:06:42;8.55;;;4.60;;
79143;SDS011;68551;47.484;19.092;2023-04-06T00:09:53;6.70;;;4.68;;
79143;SDS011;68551;47.484;19.092;2023-04-06T00:12:58;7.03;;;4.28;;
79143;SDS011;68551;47.484;19.092;2023-04-06T00:16:02;8.23;;;4.70;;
79143;SDS011;68551;47.484;19.092;2023-04-06T00:19:05;11.77;;;4.95;;
79143;SDS011;68551;47.484;19.092;2023-04-06T00:22:08;6.20;;;4.80;;
79143;SDS011;68551;47.484;19.092;2023-04-06T00:25:12;8.90;;;5.35;;
79143;SDS011;68551;47.484;19.092;2023-04-06T00:28:19;5.75;;;4.45;;
79143;SDS011;68551;47.484;19.092;2023-04-06T00:31:27;6.47;;;4.15;;
79143;SDS011;68551;47.484;19.092;2023-04-06T00:34:31;8.32;;;4.25;;
79143;SDS011;68551;47.484;19.092;2023-04-06T00:37:34;7.53;;;4.45;;
79143;SDS011;68551;47.484;19.092;2023-04-06T00:40:37;6.20;;;4.82;;
79143;SDS011;68551;47.484;19.092;2023-04-06T00:43:41;8.60;;;4.78;;
79143;SDS011;68551;47.484;19.092;2023-04-06T00:46:46;8.98;;;4.55;;
79143;SDS011;68551;47.484;19.092;2023-04-06T00:49:48;7.55;;;4.53;;
79143;SDS011;68551;47.484;19.092;2023-04-06T00:52:51;7.00;;;4.53;;
79143;SDS011;68551;47.484;19.092;2023-04-06T00:56:00;6.80;;;4.70;;
79143;SDS011;68551;47.484;19.092;2023-04-06T00:59:15;6.85;;;4.38;;
79143;SDS011;68551;47.484;19.092;2023-04-06T01:02:23;9.25;;;5.00;;
79143;SDS011;68551;47.484;19.092;2023-04-06T01:05:28;7.05;;;3.75;;
79143;SDS011;68551;47.484;19.092;2023-04-06T01:08:32;7.95;;;4.43;;
79143;SDS011;68551;47.484;19.092;2023-04-06T01:11:49;7.00;;;4.60;;
79143;SDS011;68551;47.484;19.092;2023-04-06T01:14:54;9.60;;;4.55;;
79143;SDS011;68551;47.484;19.092;2023-04-06T01:18:01;7.60;;;4.43;;
79143;SDS011;68551;47.484;19.092;2023-04-06T01:21:04;8.70;;;4.55;;
79143;SDS011;68551;47.484;19.092;2023-04-06T01:24:10;9.27;;;5.35;;
79143;SDS011;68551;47.484;19.092;2023-04-06T01:27:33;12.95;;;5.85;;
79143;SDS011;68551;47.484;19.092;2023-04-06T01:31:01;11.43;;;4.68;;
79143;SDS011;68551;47.484;19.092;2023-04-06T01:34:23;7.70;;;4.85;;
79143;SDS011;68551;47.484;19.092;2023-04-06T01:37:28;7.85;;;4.75;;
79143;SDS011;68551;47.484;19.092;2023-04-06T01:40:37;9.30;;;5.43;;
79143;SDS011;68551;47.484;19.092;2023-04-06T01:43:42;9.98;;;4.45;;
79143;SDS011;68551;47.484;19.092;2023-04-06T01:46:45;8.90;;;5.85;;
79143;SDS011;68551;47.484;19.092;2023-04-06T01:49:52;6.43;;;5.05;;
79143;SDS011;68551;47.484;19.092;2023-04-06T01:52:58;9.40;;;5.25;;
79143;SDS011;68551;47.484;19.092;2023-04-06T01:56:04;9.57;;;5.57;;
79143;SDS011;68551;47.484;19.092;2023-04-06T01:59:14;10.02;;;6.68;;
79143;SDS011;68551;47.484;19.092;2023-04-06T02:02:18;12.02;;;5.45;;
79143;SDS011;68551;47.484;19.092;2023-04-06T02:05:30;9.93;;;5.85;;
79143;SDS011;68551;47.484;19.092;2023-04-06T02:08:50;10.98;;;5.78;;
79143;SDS011;68551;47.484;19.092;2023-04-06T02:11:58;10.10;;;5.43;;
79143;SDS011;68551;47.484;19.092;2023-04-06T02:15:01;8.82;;;5.28;;
79143;SDS011;68551;47.484;19.092;2023-04-06T02:18:03;7.55;;;5.20;;
79143;SDS011;68551;47.484;19.092;2023-04-06T02:21:05;13.65;;;6.22;;
79143;SDS011;68551;47.484;19.092;2023-04-06T02:24:08;10.77;;;5.45;;
79143;SDS011;68551;47.484;19.092;2023-04-06T02:27:13;8.65;;;5.60;;
79143;SDS011;68551;47.484;19.092;2023-04-06T02:30:21;8.50;;;5.45;;
79143;SDS011;68551;47.484;19.092;2023-04-06T02:33:23;7.03;;;5.30;;
79143;SDS011;68551;47.484;19.092;2023-04-06T02:36:28;8.55;;;5.40;;
79143;SDS011;68551;47.484;19.092;2023-04-06T02:39:35;7.80;;;5.53;;
79143;SDS011;68551;47.484;19.092;2023-04-06T02:42:43;9.20;;;5.40;;
79143;SDS011;68551;47.484;19.092;2023-04-06T02:45:50;9.75;;;5.50;;
79143;SDS011;68551;47.484;19.092;2023-04-06T02:48:59;8.85;;;5.57;;
79143;SDS011;68551;47.484;19.092;2023-04-06T02:52:05;11.35;;;5.60;;
79143;SDS011;68551;47.484;19.092;2023-04-06T02:58:13;8.82;;;5.30;;
79143;SDS011;68551;47.484;19.092;2023-04-06T03:01:23;12.02;;;5.57;;
79143;SDS011;68551;47.484;19.092;2023-04-06T03:04:31;9.88;;;5.40;;
79143;SDS011;68551;47.484;19.092;2023-04-06T03:07:35;15.23;;;6.47;;
79143;SDS011;68551;47.484;19.092;2023-04-06T03:10:38;11.02;;;6.07;;
79143;SDS011;68551;47.484;19.092;2023-04-06T03:13:44;8.45;;;5.57;;
79143;SDS011;68551;47.484;19.092;2023-04-06T03:16:51;9.55;;;5.47;;
79143;SDS011;68551;47.484;19.092;2023-04-06T03:19:58;12.90;;;6.97;;
79143;SDS011;68551;47.484;19.092;2023-04-06T03:23:05;8.82;;;5.78;;
79143;SDS011;68551;47.484;19.092;2023-04-06T03:26:12;13.38;;;6.50;;
79143;SDS011;68551;47.484;19.092;2023-04-06T03:29:17;16.58;;;7.03;;
79143;SDS011;68551;47.484;19.092;2023-04-06T03:32:20;10.88;;;5.93;;
79143;SDS011;68551;47.484;19.092;2023-04-06T03:35:22;12.38;;;6.40;;
79143;SDS011;68551;47.484;19.092;2023-04-06T03:38:26;13.32;;;6.93;;
79143;SDS011;68551;47.484;19.092;2023-04-06T03:41:29;10.45;;;6.30;;
79143;SDS011;68551;47.484;19.092;2023-04-06T03:44:51;14.23;;;6.78;;
79143;SDS011;68551;47.484;19.092;2023-04-06T03:47:56;13.25;;;6.57;;
79143;SDS011;68551;47.484;19.092;2023-04-06T03:51:02;13.75;;;7.18;;
79143;SDS011;68551;47.484;19.092;2023-04-06T03:54:24;9.73;;;6.60;;
79143;SDS011;68551;47.484;19.092;2023-04-06T03:57:26;13.70;;;6.72;;
79143;SDS011;68551;47.484;19.092;2023-04-06T04:00:29;11.35;;;7.60;;
79143;SDS011;68551;47.484;19.092;2023-04-06T04:03:31;13.68;;;7.30;;
79143;SDS011;68551;47.484;19.092;2023-04-06T04:06:36;13.88;;;7.45;;
79143;SDS011;68551;47.484;19.092;2023-04-06T04:09:42;16.73;;;8.50;;
79143;SDS011;68551;47.484;19.092;2023-04-06T04:12:49;13.57;;;6.80;;
79143;SDS011;68551;47.484;19.092;2023-04-06T04:15:54;13.75;;;7.78;;
79143;SDS011;68551;47.484;19.092;2023-04-06T04:18:57;11.82;;;7.05;;
79143;SDS011;68551;47.484;19.092;2023-04-06T04:22:05;15.18;;;7.70;;
79143;SDS011;68551;47.484;19.092;2023-04-06T04:25:12;18.65;;;7.75;;
79143;SDS011;68551;47.484;19.092;2023-04-06T04:28:20;15.40;;;8.05;;
79143;SDS011;68551;47.484;19.092;2023-04-06T04:31:28;12.65;;;7.70;;
79143;SDS011;68551;47.484;19.092;2023-04-06T04:34:37;14.02;;;7.35;;
79143;SDS011;68551;47.484;19.092;2023-04-06T04:37:49;14.15;;;8.45;;
79143;SDS011;68551;47.484;19.092;2023-04-06T04:40:52;12.60;;;7.40;;
79143;SDS011;68551;47.484;19.092;2023-04-06T04:43:56;11.82;;;7.47;;
79143;SDS011;68551;47.484;19.092;2023-04-06T04:47:00;11.80;;;6.88;;
79143;SDS011;68551;47.484;19.092;2023-04-06T04:50:13;14.75;;;7.50;;
79143;SDS011;68551;47.484;19.092;2023-04-06T04:53:20;13.82;;;7.32;;
79143;SDS011;68551;47.484;19.092;2023-04-06T04:56:28;15.70;;;7.80;;
79143;SDS011;68551;47.484;19.092;2023-04-06T04:59:43;13.88;;;7.47;;
79143;SDS011;68551;47.484;19.092;2023-04-06T05:02:51;13.75;;;8.15;;
79143;SDS011;68551;47.484;19.092;2023-04-06T05:06:02;17.20;;;7.70;;
79143;SDS011;68551;47.484;19.092;2023-04-06T05:09:11;17.00;;;8.15;;
79143;SDS011;68551;47.484;19.092;2023-04-06T05:12:19;12.25;;;7.15;;
79143;SDS011;68551;47.484;19.092;2023-04-06T05:15:36;13.98;;;7.00;;
79143;SDS011;68551;47.484;19.092;2023-04-06T05:18:53;9.57;;;7.40;;
79143;SDS011;68551;47.484;19.092;2023-04-06T05:22:03;11.10;;;6.93;;
79143;SDS011;68551;47.484;19.092;2023-04-06T05:25:09;13.27;;;6.85;;
79143;SDS011;68551;47.484;19.092;2023-04-06T05:28:14;11.98;;;6.32;;
79143;SDS011;68551;47.484;19.092;2023-04-06T05:31:18;11.00;;;6.47;;
79143;SDS011;68551;47.484;19.092;2023-04-06T05:34:24;10.90;;;6.40;;
79143;SDS011;68551;47.484;19.092;2023-04-06T05:37:28;9.32;;;5.78;;
79143;SDS011;68551;47.484;19.092;2023-04-06T05:40:33;8.50;;;5.78;;
79143;SDS011;68551;47.484;19.092;2023-04-06T05:43:49;9.13;;;6.22;;
79143;SDS011;68551;47.484;19.092;2023-04-06T05:46:51;9.73;;;5.97;;
79143;SDS011;68551;47.484;19.092;2023-04-06T05:49:54;11.70;;;6.65;;
79143;SDS011;68551;47.484;19.092;2023-04-06T05:53:06;11.20;;;6.45;;
79143;SDS011;68551;47.484;19.092;2023-04-06T05:56:15;9.57;;;6.53;;
79143;SDS011;68551;47.484;19.092;2023-04-06T05:59:18;8.80;;;6.82;;
79143;SDS011;68551;47.484;19.092;2023-04-06T06:02:23;12.23;;;6.90;;
79143;SDS011;68551;47.484;19.092;2023-04-06T06:05:28;13.48;;;7.32;;
79143;SDS011;68551;47.484;19.092;2023-04-06T06:08:35;13.95;;;7.35;;
79143;SDS011;68551;47.484;19.092;2023-04-06T06:11:44;14.13;;;7.10;;
79143;SDS011;68551;47.484;19.092;2023-04-06T06:14:51;11.30;;;7.13;;
79143;SDS011;68551;47.484;19.092;2023-04-06T06:17:57;9.38;;;7.32;;
79143;SDS011;68551;47.484;19.092;2023-04-06T06:21:01;13.68;;;7.32;;
79143;SDS011;68551;47.484;19.092;2023-04-06T06:24:06;13.05;;;6.78;;
79143;SDS011;68551;47.484;19.092;2023-04-06T06:27:09;14.98;;;7.65;;
79143;SDS011;68551;47.484;19.092;2023-04-06T06:30:12;10.15;;;7.28;;
79143;SDS011;68551;47.484;19.092;2023-04-06T06:33:16;13.32;;;7.75;;
79143;SDS011;68551;47.484;19.092;2023-04-06T06:36:20;12.75;;;7.95;;
79143;SDS011;68551;47.484;19.092;2023-04-06T06:39:25;11.65;;;7.10;;
79143;SDS011;68551;47.484;19.092;2023-04-06T06:42:32;9.05;;;6.90;;
79143;SDS011;68551;47.484;19.092;2023-04-06T06:45:49;12.57;;;7.00;;
79143;SDS011;68551;47.484;19.092;2023-04-06T06:48:57;11.38;;;7.45;;
79143;SDS011;68551;47.484;19.092;2023-04-06T06:55:02;9.48;;;6.95;;
79143;SDS011;68551;47.484;19.092;2023-04-06T06:58:10;12.68;;;6.45;;
79143;SDS011;68551;47.484;19.092;2023-04-06T07:01:12;11.95;;;6.35;;
79143;SDS011;68551;47.484;19.092;2023-04-06T07:04:15;13.10;;;6.45;;
79143;SDS011;68551;47.484;19.092;2023-04-06T07:07:17;10.27;;;5.95;;
79143;SDS011;68551;47.484;19.092;2023-04-06T07:10:23;8.63;;;5.75;;
79143;SDS011;68551;47.484;19.092;2023-04-06T07:13:28;10.00;;;5.85;;
79143;SDS011;68551;47.484;19.092;2023-04-06T07:16:32;9.43;;;5.45;;
79143;SDS011;68551;47.484;19.092;2023-04-06T07:19:38;10.07;;;6.00;;
79143;SDS011;68551;47.484;19.092;2023-04-06T07:22:42;9.30;;;6.22;;
79143;SDS011;68551;47.484;19.092;2023-04-06T07:25:47;10.90;;;5.72;;
79143;SDS011;68551;47.484;19.092;2023-04-06T07:31:57;12.30;;;7.05;;
79143;SDS011;68551;47.484;19.092;2023-04-06T07:35:00;8.95;;;5.55;;
79143;SDS011;68551;47.484;19.092;2023-04-06T07:38:08;10.48;;;6.07;;
79143;SDS011;68551;47.484;19.092;2023-04-06T07:41:10;11.15;;;6.55;;
79143;SDS011;68551;47.484;19.092;2023-04-06T07:44:16;11.43;;;6.47;;
79143;SDS011;68551;47.484;19.092;2023-04-06T07:50:21;9.50;;;5.90;;
79143;SDS011;68551;47.484;19.092;2023-04-06T07:53:27;9.75;;;6.43;;
79143;SDS011;68551;47.484;19.092;2023-04-06T07:56:31;8.43;;;5.88;;
79143;SDS011;68551;47.484;19.092;2023-04-06T07:59:34;8.93;;;6.13;;
79143;SDS011;68551;47.484;19.092;2023-04-06T08:02:37;9.88;;;5.80;;
79143;SDS011;68551;47.484;19.092;2023-04-06T08:05:41;10.25;;;6.35;;
79143;SDS011;68551;47.484;19.092;2023-04-06T08:08:44;8.48;;;6.53;;
79143;SDS011;68551;47.484;19.092;2023-04-06T08:11:46;9.85;;;6.30;;
79143;SDS011;68551;47.484;19.092;2023-04-06T08:14:51;10.88;;;5.82;;
79143;SDS011;68551;47.484;19.092;2023-04-06T08:17:56;8.75;;;6.32;;
79143;SDS011;68551;47.484;19.092;2023-04-06T08:20:59;12.45;;;7.38;;
79143;SDS011;68551;47.484;19.092;2023-04-06T08:24:01;10.27;;;7.00;;
79143;SDS011;68551;47.484;19.092;2023-04-06T08:27:08;12.43;;;6.13;;
79143;SDS011;68551;47.484;19.092;2023-04-06T08:30:17;11.05;;;6.68;;
79143;SDS011;68551;47.484;19.092;2023-04-06T08:33:21;10.73;;;6.10;;
79143;SDS011;68551;47.484;19.092;2023-04-06T08:36:25;12.13;;;7.30;;
79143;SDS011;68551;47.484;19.092;2023-04-06T08:39:30;10.55;;;6.75;;
79143;SDS011;68551;47.484;19.092;2023-04-06T08:42:39;10.70;;;6.75;;
79143;SDS011;68551;47.484;19.092;2023-04-06T08:45:51;8.88;;;6.53;;
79143;SDS011;68551;47.484;19.092;2023-04-06T08:49:02;9.32;;;5.85;;
79143;SDS011;68551;47.484;19.092;2023-04-06T08:52:08;11.48;;;6.32;;
79143;SDS011;68551;47.484;19.092;2023-04-06T08:55:15;9.82;;;6.18;;
79143;SDS011;68551;47.484;19.092;2023-04-06T08:58:21;10.40;;;6.55;;
79143;SDS011;68551;47.484;19.092;2023-04-06T09:01:39;8.38;;;6.20;;
79143;SDS011;68551;47.484;19.092;2023-04-06T09:04:47;10.48;;;6.07;;
79143;SDS011;68551;47.484;19.092;2023-04-06T09:07:55;9.45;;;5.95;;
79143;SDS011;68551;47.484;19.092;2023-04-06T09:11:00;9.52;;;5.70;;
79143;SDS011;68551;47.484;19.092;2023-04-06T09:14:06;8.65;;;5.95;;
79143;SDS011;68551;47.484;19.092;2023-04-06T09:17:19;9.65;;;6.70;;
79143;SDS011;68551;47.484;19.092;2023-04-06T09:20:25;9.00;;;6.20;;
79143;SDS011;68551;47.484;19.092;2023-04-06T09:23:29;10.48;;;6.18;;
79143;SDS011;68551;47.484;19.092;2023-04-06T09:26:44;9.63;;;6.57;;
79143;SDS011;68551;47.484;19.092;2023-04-06T09:29:48;10.70;;;6.97;;
79143;SDS011;68551;47.484;19.092;2023-04-06T09:32:54;9.68;;;6.47;;
79143;SDS011;68551;47.484;19.092;2023-04-06T09:35:57;8.52;;;6.32;;
79143;SDS011;68551;47.484;19.092;2023-04-06T09:39:03;6.80;;;5.85;;
79143;SDS011;68551;47.484;19.092;2023-04-06T09:42:09;8.30;;;6.03;;
79143;SDS011;68551;47.484;19.092;2023-04-06T09:45:11;10.52;;;5.32;;
79143;SDS011;68551;47.484;19.092;2023-04-06T09:48:16;7.70;;;5.53;;
79143;SDS011;68551;47.484;19.092;2023-04-06T09:51:22;8.52;;;5.97;;
79143;SDS011;68551;47.484;19.092;2023-04-06T09:54:28;11.20;;;5.80;;
79143;SDS011;68551;47.484;19.092;2023-04-06T09:57:55;9.82;;;5.45;;
79143;SDS011;68551;47.484;19.092;2023-04-06T10:01:09;8.57;;;5.38;;
79143;SDS011;68551;47.484;19.092;2023-04-06T10:04:35;7.47;;;4.85;;
79143;SDS011;68551;47.484;19.092;2023-04-06T10:07:45;9.13;;;5.38;;
79143;SDS011;68551;47.484;19.092;2023-04-06T10:11:03;9.60;;;5.75;;
79143;SDS011;68551;47.484;19.092;2023-04-06T10:14:08;8.85;;;4.85;;
79143;SDS011;68551;47.484;19.092;2023-04-06T10:17:11;9.48;;;5.50;;
79143;SDS011;68551;47.484;19.092;2023-04-06T10:20:34;9.02;;;5.95;;
79143;SDS011;68551;47.484;19.092;2023-04-06T10:23:46;10.15;;;6.38;;
79143;SDS011;68551;47.484;19.092;2023-04-06T10:26:58;8.15;;;5.45;;
79143;SDS011;68551;47.484;19.092;2023-04-06T10:30:04;10.48;;;5.75;;
79143;SDS011;68551;47.484;19.092;2023-04-06T10:33:20;7.28;;;5.03;;
79143;SDS011;68551;47.484;19.092;2023-04-06T10:36:23;9.65;;;5.78;;
79143;SDS011;68551;47.484;19.092;2023-04-06T10:39:28;8.38;;;5.53;;
79143;SDS011;68551;47.484;19.092;2023-04-06T10:42:37;7.30;;;4.80;;
79143;SDS011;68551;47.484;19.092;2023-04-06T10:45:40;8.50;;;5.63;;
79143;SDS011;68551;47.484;19.092;2023-04-06T10:51:53;7.97;;;5.45;;
79143;SDS011;68551;47.484;19.092;2023-04-06T10:54:56;8.43;;;5.57;;
79143;SDS011;68551;47.484;19.092;2023-04-06T10:57:59;7.57;;;5.00;;
79143;SDS011;68551;47.484;19.092;2023-04-06T11:01:03;7.88;;;4.55;;
79143;SDS011;68551;47.484;19.092;2023-04-06T11:04:15;9.00;;;4.60;;
79143;SDS011;68551;47.484;19.092;2023-04-06T11:07:22;7.45;;;5.22;;
79143;SDS011;68551;47.484;19.092;2023-04-06T11:10:33;7.70;;;4.70;;
79143;SDS011;68551;47.484;19.092;2023-04-06T11:13:45;7.07;;;4.68;;
79143;SDS011;68551;47.484;19.092;2023-04-06T11:16:51;7.75;;;5.45;;
79143;SDS011;68551;47.484;19.092;2023-04-06T11:19:55;10.48;;;5.18;;
79143;SDS011;68551;47.484;19.092;2023-04-06T11:22:58;7.40;;;5.50;;
79143;SDS011;68551;47.484;19.092;2023-04-06T11:26:03;8.02;;;5.18;;
79143;SDS011;68551;47.484;19.092;2023-04-06T11:29:06;7.38;;;4.88;;
79143;SDS011;68551;47.484;19.092;2023-04-06T11:32:19;5.85;;;4.60;;
79143;SDS011;68551;47.484;19.092;2023-04-06T11:35:23;7.43;;;5.18;;
79143;SDS011;68551;47.484;19.092;2023-04-06T11:38:29;8.18;;;4.97;;
79143;SDS011;68551;47.484;19.092;2023-04-06T11:41:32;7.47;;;5.10;;
79143;SDS011;68551;47.484;19.092;2023-04-06T11:44:38;8.75;;;5.30;;
79143;SDS011;68551;47.484;19.092;2023-04-06T11:47:44;7.22;;;4.93;;
79143;SDS011;68551;47.484;19.092;2023-04-06T11:50:57;6.53;;;4.72;;
79143;SDS011;68551;47.484;19.092;2023-04-06T11:54:05;7.65;;;4.65;;
79143;SDS011;68551;47.484;19.092;2023-04-06T11:57:14;7.10;;;5.00;;
79143;SDS011;68551;47.484;19.092;2023-04-06T12:00:17;7.28;;;4.53;;
79143;SDS011;68551;47.484;19.092;2023-04-06T12:03:20;7.00;;;4.85;;
79143;SDS011;68551;47.484;19.092;2023-04-06T12:06:22;8.27;;;5.95;;
79143;SDS011;68551;47.484;19.092;2023-04-06T12:09:27;7.57;;;4.82;;
79143;SDS011;68551;47.484;19.092;2023-04-06T12:12:32;7.78;;;5.40;;
79143;SDS011;68551;47.484;19.092;2023-04-06T12:15:37;8.85;;;5.45;;
79143;SDS011;68551;47.484;19.092;2023-04-06T12:18:39;7.30;;;5.15;;
79143;SDS011;68551;47.484;19.092;2023-04-06T12:21:46;6.55;;;5.25;;
79143;SDS011;68551;47.484;19.092;2023-04-06T12:24:51;6.60;;;4.75;;
79143;SDS011;68551;47.484;19.092;2023-04-06T12:27:56;7.55;;;4.70;;
79143;SDS011;68551;47.484;19.092;2023-04-06T12:30:58;7.82;;;5.57;;
79143;SDS011;68551;47.484;19.092;2023-04-06T12:34:01;6.60;;;4.80;;
79143;SDS011;68551;47.484;19.092;2023-04-06T12:37:07;10.80;;;6.57;;
79143;SDS011;68551;47.484;19.092;2023-04-06T12:40:10;7.85;;;4.75;;
79143;SDS011;68551;47.484;19.092;2023-04-06T12:43:13;7.60;;;4.88;;
79143;SDS011;68551;47.484;19.092;2023-04-06T12:46:16;9.45;;;5.53;;
79143;SDS011;68551;47.484;19.092;2023-04-06T12:49:21;10.52;;;5.28;;
79143;SDS011;68551;47.484;19.092;2023-04-06T12:52:26;7.25;;;5.65;;
79143;SDS011;68551;47.484;19.092;2023-04-06T12:55:33;8.05;;;5.03;;
79143;SDS011;68551;47.484;19.092;2023-04-06T12:58:38;6.20;;;4.82;;
79143;SDS011;68551;47.484;19.092;2023-04-06T13:01:44;7.43;;;5.18;;
79143;SDS011;68551;47.484;19.092;2023-04-06T13:04:49;8.75;;;5.22;;
79143;SDS011;68551;47.484;19.092;2023-04-06T13:07:52;9.35;;;6.75;;
79143;SDS011;68551;47.484;19.092;2023-04-06T13:10:57;11.32;;;6.15;;
79143;SDS011;68551;47.484;19.092;2023-04-06T13:13:59;8.05;;;5.72;;
79143;SDS011;68551;47.484;19.092;2023-04-06T13:17:02;8.70;;;6.13;;
79143;SDS011;68551;47.484;19.092;2023-04-06T13:20:04;7.53;;;5.28;;
79143;SDS011;68551;47.484;19.092;2023-04-06T13:26:13;7.38;;;5.00;;
79143;SDS011;68551;47.484;19.092;2023-04-06T13:29:17;10.98;;;5.90;;
79143;SDS011;68551;47.484;19.092;2023-04-06T13:32:22;9.30;;;4.95;;
79143;SDS011;68551;47.484;19.092;2023-04-06T13:35:24;11.18;;;6.75;;
79143;SDS011;68551;47.484;19.092;2023-04-06T13:38:31;7.97;;;5.10;;
79143;SDS011;68551;47.484;19.092;2023-04-06T13:41:38;10.27;;;5.13;;
79143;SDS011;68551;47.484;19.092;2023-04-06T13:44:43;12.35;;;5.85;;
79143;SDS011;68551;47.484;19.092;2023-04-06T13:47:48;6.18;;;4.70;;
79143;SDS011;68551;47.484;19.092;2023-04-06T13:53:56;7.68;;;5.38;;
79143;SDS011;68551;47.484;19.092;2023-04-06T13:57:01;6.78;;;4.55;;
79143;SDS011;68551;47.484;19.092;2023-04-06T14:00:06;6.60;;;4.53;;
79143;SDS011;68551;47.484;19.092;2023-04-06T14:03:09;6.20;;;4.60;;
79143;SDS011;68551;47.484;19.092;2023-04-06T14:06:14;8.60;;;5.13;;
79143;SDS011;68551;47.484;19.092;2023-04-06T14:09:34;7.35;;;4.53;;
79143;SDS011;68551;47.484;19.092;2023-04-06T14:12:41;9.07;;;4.50;;
79143;SDS011;68551;47.484;19.092;2023-04-06T14:15:46;8.68;;;4.60;;
79143;SDS011;68551;47.484;19.092;2023-04-06T14:18:54;6.43;;;4.78;;
79143;SDS011;68551;47.484;19.092;2023-04-06T14:21:59;5.82;;;4.07;;
79143;SDS011;68551;47.484;19.092;2023-04-06T14:25:01;9.30;;;4.93;;
79143;SDS011;68551;47.484;19.092;2023-04-06T14:28:06;7.85;;;4.78;;
79143;SDS011;68551;47.484;19.092;2023-04-06T14:31:12;8.00;;;4.68;;
79143;SDS011;68551;47.484;19.092;2023-04-06T14:34:17;8.27;;;4.95;;
79143;SDS011;68551;47.484;19.092;2023-04-06T14:37:19;9.32;;;4.63;;
79143;SDS011;68551;47.484;19.092;2023-04-06T14:40:23;11.43;;;5.80;;
79143;SDS011;68551;47.484;19.092;2023-04-06T14:43:25;9.50;;;5.00;;
79143;SDS011;68551;47.484;19.092;2023-04-06T14:46:30;6.85;;;4.50;;
79143;SDS011;68551;47.484;19.092;2023-04-06T14:49:38;9.57;;;4.43;;
79143;SDS011;68551;47.484;19.092;2023-04-06T14:52:40;6.65;;;4.32;;
79143;SDS011;68551;47.484;19.092;2023-04-06T14:55:42;6.90;;;4.18;;
79143;SDS011;68551;47.484;19.092;2023-04-06T14:58:48;7.60;;;4.63;;
79143;SDS011;68551;47.484;19.092;2023-04-06T15:01:53;7.38;;;4.68;;
79143;SDS011;68551;47.484;19.092;2023-04-06T15:04:58;6.10;;;4.38;;
79143;SDS011;68551;47.484;19.092;2023-04-06T15:08:01;7.30;;;4.40;;
79143;SDS011;68551;47.484;19.092;2023-04-06T15:11:03;6.00;;;4.30;;
79143;SDS011;68551;47.484;19.092;2023-04-06T15:14:06;7.47;;;4.85;;
79143;SDS011;68551;47.484;19.092;2023-04-06T15:17:08;7.63;;;5.43;;
79143;SDS011;68551;47.484;19.092;2023-04-06T15:20:11;8.65;;;5.07;;
79143;SDS011;68551;47.484;19.092;2023-04-06T15:23:13;12.18;;;4.97;;
79143;SDS011;68551;47.484;19.092;2023-04-06T15:26:16;8.15;;;4.78;;
79143;SDS011;68551;47.484;19.092;2023-04-06T15:29:18;10.00;;;4.72;;
79143;SDS011;68551;47.484;19.092;2023-04-06T15:32:23;8.52;;;5.50;;
79143;SDS011;68551;47.484;19.092;2023-04-06T15:35:30;7.25;;;4.57;;
79143;SDS011;68551;47.484;19.092;2023-04-06T15:38:35;7.32;;;4.88;;
79143;SDS011;68551;47.484;19.092;2023-04-06T15:41:37;8.02;;;5.10;;
79143;SDS011;68551;47.484;19.092;2023-04-06T15:44:40;8.43;;;5.32;;
79143;SDS011;68551;47.484;19.092;2023-04-06T15:47:43;8.32;;;5.18;;
79143;SDS011;68551;47.484;19.092;2023-04-06T15:50:47;9.27;;;5.65;;
79143;SDS011;68551;47.484;19.092;2023-04-06T15:53:54;8.82;;;4.93;;
79143;SDS011;68551;47.484;19.092;2023-04-06T15:56:56;8.52;;;5.70;;
79143;SDS011;68551;47.484;19.092;2023-04-06T15:59:59;8.55;;;5.57;;
79143;SDS011;68551;47.484;19.092;2023-04-06T16:03:04;7.43;;;4.93;;
79143;SDS011;68551;47.484;19.092;2023-04-06T16:06:09;10.48;;;5.43;;
79143;SDS011;68551;47.484;19.092;2023-04-06T16:09:11;7.85;;;5.40;;
79143;SDS011;68551;47.484;19.092;2023-04-06T16:12:14;7.15;;;5.28;;
79143;SDS011;68551;47.484;19.092;2023-04-06T16:15:19;8.82;;;5.70;;
79143;SDS011;68551;47.484;19.092;2023-04-06T16:18:21;9.15;;;5.40;;
79143;SDS011;68551;47.484;19.092;2023-04-06T16:21:24;8.80;;;5.43;;
79143;SDS011;68551;47.484;19.092;2023-04-06T16:24:28;6.55;;;5.13;;
79143;SDS011;68551;47.484;19.092;2023-04-06T16:27:31;9.80;;;5.72;;
79143;SDS011;68551;47.484;19.092;2023-04-06T16:30:36;8.40;;;5.72;;
79143;SDS011;68551;47.484;19.092;2023-04-06T16:33:45;12.70;;;6.50;;
79143;SDS011;68551;47.484;19.092;2023-04-06T16:36:49;10.55;;;5.70;;
79143;SDS011;68551;47.484;19.092;2023-04-06T16:39:51;9.07;;;5.85;;
79143;SDS011;68551;47.484;19.092;2023-04-06T16:42:59;9.13;;;6.07;;
79143;SDS011;68551;47.484;19.092;2023-04-06T16:46:03;9.88;;;6.03;;
79143;SDS011;68551;47.484;19.092;2023-04-06T16:49:06;8.95;;;5.63;;
79143;SDS011;68551;47.484;19.092;2023-04-06T16:52:10;10.80;;;5.97;;
79143;SDS011;68551;47.484;19.092;2023-04-06T16:55:16;10.95;;;6.28;;
79143;SDS011;68551;47.484;19.092;2023-04-06T16:58:18;11.38;;;5.55;;
79143;SDS011;68551;47.484;19.092;2023-04-06T17:01:22;9.45;;;6.18;;
79143;SDS011;68551;47.484;19.092;2023-04-06T17:04:27;8.27;;;6.45;;
79143;SDS011;68551;47.484;19.092;2023-04-06T17:07:33;10.23;;;6.80;;
79143;SDS011;68551;47.484;19.092;2023-04-06T17:10:37;11.90;;;7.63;;
79143;SDS011;68551;47.484;19.092;2023-04-06T17:13:52;14.20;;;7.28;;
79143;SDS011;68551;47.484;19.092;2023-04-06T17:16:58;10.63;;;6.75;;
79143;SDS011;68551;47.484;19.092;2023-04-06T17:20:05;11.77;;;7.50;;
79143;SDS011;68551;47.484;19.092;2023-04-06T17:23:08;10.32;;;7.15;;
79143;SDS011;68551;47.484;19.092;2023-04-06T17:26:10;11.80;;;7.95;;
79143;SDS011;68551;47.484;19.092;2023-04-06T17:29:17;9.65;;;6.75;;
79143;SDS011;68551;47.484;19.092;2023-04-06T17:32:22;11.18;;;7.50;;
79143;SDS011;68551;47.484;19.092;2023-04-06T17:35:28;9.65;;;7.07;;
79143;SDS011;68551;47.484;19.092;2023-04-06T17:38:31;11.38;;;7.57;;
79143;SDS011;68551;47.484;19.092;2023-04-06T17:41:33;14.38;;;7.90;;
79143;SDS011;68551;47.484;19.092;2023-04-06T17:44:35;10.95;;;8.18;;
79143;SDS011;68551;47.484;19.092;2023-04-06T17:47:38;11.48;;;8.23;;
79143;SDS011;68551;47.484;19.092;2023-04-06T17:50:40;13.00;;;7.90;;
79143;SDS011;68551;47.484;19.092;2023-04-06T17:53:45;13.50;;;8.73;;
79143;SDS011;68551;47.484;19.092;2023-04-06T17:56:52;13.40;;;8.32;;
79143;SDS011;68551;47.484;19.092;2023-04-06T18:00:00;13.00;;;9.85;;
79143;SDS011;68551;47.484;19.092;2023-04-06T18:03:05;13.68;;;9.23;;
79143;SDS011;68551;47.484;19.092;2023-04-06T18:06:09;14.65;;;9.32;;
79143;SDS011;68551;47.484;19.092;2023-04-06T18:09:15;14.32;;;9.68;;
79143;SDS011;68551;47.484;19.092;2023-04-06T18:12:17;14.30;;;10.18;;
79143;SDS011;68551;47.484;19.092;2023-04-06T18:15:22;15.00;;;10.05;;
79143;SDS011;68551;47.484;19.092;2023-04-06T18:18:25;14.68;;;10.13;;
79143;SDS011;68551;47.484;19.092;2023-04-06T18:21:29;16.88;;;10.98;;
79143;SDS011;68551;47.484;19.092;2023-04-06T18:24:36;17.52;;;10.90;;
79143;SDS011;68551;47.484;19.092;2023-04-06T18:27:44;15.77;;;10.52;;
79143;SDS011;68551;47.484;19.092;2023-04-06T18:30:49;15.55;;;9.90;;
79143;SDS011;68551;47.484;19.092;2023-04-06T18:33:54;14.43;;;9.77;;
79143;SDS011;68551;47.484;19.092;2023-04-06T18:36:57;12.70;;;9.23;;